createdAt,value
2018-07-27T00:01:40.418Z,28.77
2018-07-27T00:05:05.084Z,28.72
2018-07-27T00:08:29.739Z,28.67
2018-07-27T00:11:54.257Z,28.50
2018-07-27T00:15:18.850Z,28.26
2018-07-27T00:18:43.386Z,28.09
2018-07-27T00:22:08.045Z,28.01
2018-07-27T00:25:32.603Z,27.95
2018-07-27T00:28:57.129Z,27.90
2018-07-27T00:32:21.570Z,27.71
2018-07-27T00:35:46.130Z,27.63
2018-07-27T00:39:11.190Z,27.50
2018-07-27T00:42:35.674Z,27.49
2018-07-27T00:46:09.346Z,27.39
2018-07-27T00:49:36.924Z,27.25
2018-07-27T00:53:01.556Z,27.12
2018-07-27T00:56:26.098Z,27.14
2018-07-27T00:59:50.512Z,27.15
2018-07-27T01:03:14.923Z,26.87
2018-07-27T01:06:39.402Z,26.86
2018-07-27T01:10:03.909Z,26.71
2018-07-27T01:13:28.427Z,26.74
2018-07-27T01:16:52.884Z,26.53
2018-07-27T01:20:17.348Z,26.53
2018-07-27T01:23:41.774Z,26.50
2018-07-27T01:27:06.293Z,26.44
2018-07-27T01:30:30.692Z,26.45
2018-07-27T01:33:55.226Z,26.40
2018-07-27T01:37:19.625Z,26.31
2018-07-27T01:40:44.037Z,26.29
2018-07-27T01:44:08.162Z,26.26
2018-07-27T01:47:32.567Z,26.03
2018-07-27T01:50:57.421Z,25.98
2018-07-27T01:54:21.778Z,25.95
2018-07-27T01:57:46.185Z,25.87
2018-07-27T02:01:10.611Z,25.83
2018-07-27T02:04:35.033Z,25.71
2018-07-27T02:07:59.455Z,25.73
2018-07-27T02:11:23.883Z,25.68
2018-07-27T02:14:48.279Z,25.67
2018-07-27T02:18:12.729Z,25.47
2018-07-27T02:21:37.170Z,25.45
2018-07-27T02:25:01.565Z,25.47
2018-07-27T02:28:26.011Z,25.41
2018-07-27T02:31:50.567Z,25.35
2018-07-27T02:35:15.103Z,25.18
2018-07-27T02:38:39.693Z,25.25
2018-07-27T02:42:04.264Z,24.95
2018-07-27T02:45:28.774Z,24.86
2018-07-27T02:48:53.551Z,24.90
2018-07-27T02:52:17.750Z,24.90
2018-07-27T02:55:42.265Z,24.81
2018-07-27T02:59:06.841Z,24.83
2018-07-27T03:02:31.379Z,24.60
2018-07-27T03:05:56.268Z,24.69
2018-07-27T03:09:20.765Z,24.61
2018-07-27T03:12:45.309Z,24.66
2018-07-27T03:16:09.833Z,24.74
2018-07-27T03:19:34.397Z,24.58
2018-07-27T03:22:58.949Z,24.63
2018-07-27T03:26:23.543Z,24.53
2018-07-27T03:29:48.035Z,24.44
2018-07-27T03:33:12.646Z,24.42
2018-07-27T03:36:37.208Z,24.40
2018-07-27T03:40:01.775Z,24.27
2018-07-27T03:43:26.248Z,24.29
2018-07-27T03:46:50.757Z,24.21
2018-07-27T03:50:15.274Z,24.06
2018-07-27T03:53:39.762Z,24.03
2018-07-27T03:57:04.339Z,24.06
2018-07-27T04:00:28.902Z,24.17
2018-07-27T04:03:53.834Z,24.20
2018-07-27T04:07:24.677Z,24.15
2018-07-27T04:10:49.115Z,24.27
2018-07-27T04:14:13.565Z,24.36
2018-07-27T04:17:38.024Z,24.45
2018-07-27T04:21:02.463Z,24.49
2018-07-27T04:24:26.903Z,24.51
2018-07-27T04:27:51.442Z,24.58
2018-07-27T04:31:15.965Z,24.56
2018-07-27T04:34:40.614Z,24.67
2018-07-27T04:38:05.197Z,24.66
2018-07-27T04:41:29.742Z,24.69
2018-07-27T04:44:54.253Z,24.66
2018-07-27T04:48:18.699Z,24.73
2018-07-27T04:51:43.141Z,24.83
2018-07-27T04:55:07.695Z,24.81
2018-07-27T04:58:32.118Z,24.82
2018-07-27T05:01:56.530Z,24.86
2018-07-27T05:05:21.072Z,24.91
2018-07-27T05:08:50.687Z,25.04
2018-07-27T05:12:15.161Z,25.08
2018-07-27T05:15:39.624Z,25.16
2018-07-27T05:19:04.017Z,25.28
2018-07-27T05:22:28.424Z,25.36
2018-07-27T05:25:52.850Z,25.47
2018-07-27T05:29:17.262Z,25.46
2018-07-27T05:32:41.738Z,25.60
2018-07-27T05:36:06.407Z,25.66
2018-07-27T05:39:30.935Z,25.80
2018-07-27T05:42:55.409Z,25.90
2018-07-27T05:46:19.877Z,26.05
2018-07-27T05:49:44.333Z,26.14
2018-07-27T05:53:08.865Z,26.36
2018-07-27T05:56:33.359Z,26.52
2018-07-27T05:59:57.884Z,26.72
2018-07-27T06:03:22.467Z,26.86
2018-07-27T06:06:47.005Z,27.04
2018-07-27T06:10:11.608Z,27.14
2018-07-27T06:13:36.104Z,27.30
2018-07-27T06:17:00.619Z,27.46
2018-07-27T06:20:25.100Z,27.69
2018-07-27T06:23:49.694Z,27.89
2018-07-27T06:27:14.125Z,28.03
2018-07-27T06:30:38.899Z,28.23
2018-07-27T06:34:03.349Z,28.45
2018-07-27T06:37:27.841Z,28.61
2018-07-27T06:40:52.399Z,28.80
2018-07-27T06:44:16.874Z,28.94
2018-07-27T06:47:41.341Z,29.03
2018-07-27T06:51:05.802Z,29.28
2018-07-27T06:54:30.458Z,29.50
2018-07-27T06:57:55.198Z,29.66
2018-07-27T07:01:19.682Z,29.70
2018-07-27T07:04:44.167Z,29.95
2018-07-27T07:08:08.690Z,29.99
2018-07-27T07:11:33.193Z,30.13
2018-07-27T07:14:57.687Z,30.24
2018-07-27T07:18:22.130Z,30.36
2018-07-27T07:21:46.575Z,30.46
2018-07-27T07:25:11.051Z,30.64
2018-07-27T07:28:35.414Z,30.70
2018-07-27T07:31:59.851Z,30.78
2018-07-27T07:35:24.331Z,30.83
2018-07-27T07:38:48.817Z,31.05
2018-07-27T07:42:13.287Z,31.27
2018-07-27T07:45:37.742Z,31.39
2018-07-27T07:49:04.124Z,31.27
2018-07-27T07:52:28.623Z,31.46
2018-07-27T07:55:53.070Z,31.69
2018-07-27T07:59:17.501Z,31.85
2018-07-27T08:02:42.003Z,32.09
2018-07-27T08:06:06.873Z,32.18
2018-07-27T08:09:31.310Z,32.15
2018-07-27T08:12:55.771Z,32.26
2018-07-27T08:16:20.231Z,32.53
2018-07-27T08:19:44.644Z,32.71
2018-07-27T08:23:08.855Z,32.90
2018-07-27T08:26:39.317Z,33.11
2018-07-27T08:30:03.782Z,33.20
2018-07-27T08:33:28.207Z,33.32
2018-07-27T08:36:52.945Z,33.21
2018-07-27T08:40:17.352Z,33.37
2018-07-27T08:43:41.745Z,33.63
2018-07-27T08:47:06.278Z,33.72
2018-07-27T08:50:30.727Z,33.98
2018-07-27T08:53:55.638Z,34.18
2018-07-27T08:57:20.063Z,34.24
2018-07-27T09:00:54.715Z,34.55
2018-07-27T09:04:19.171Z,34.48
2018-07-27T09:07:43.578Z,34.65
2018-07-27T09:11:08.023Z,34.67
2018-07-27T09:14:32.487Z,34.76
2018-07-27T09:17:56.921Z,34.97
2018-07-27T09:21:21.436Z,35.29
2018-07-27T09:24:46.003Z,35.28
2018-07-27T09:28:10.484Z,35.37
2018-07-27T09:31:34.966Z,35.61
2018-07-27T09:34:59.359Z,35.86
2018-07-27T09:38:23.773Z,35.74
2018-07-27T09:41:48.293Z,35.87
2018-07-27T09:45:12.839Z,35.92
2018-07-27T09:48:37.344Z,35.95
2018-07-27T09:52:01.788Z,36.54
2018-07-27T09:55:26.385Z,36.86
2018-07-27T09:58:50.856Z,37.24
2018-07-27T10:02:15.294Z,37.49
2018-07-27T10:05:39.779Z,37.85
2018-07-27T10:09:04.958Z,38.00
2018-07-27T10:12:29.562Z,38.30
2018-07-27T10:15:54.011Z,38.59
2018-07-27T10:19:18.475Z,38.66
2018-07-27T10:22:42.977Z,39.06
2018-07-27T10:26:07.422Z,39.53
2018-07-27T10:29:31.909Z,39.29
2018-07-27T10:32:56.364Z,39.77
2018-07-27T10:36:20.807Z,40.52
2018-07-27T10:39:45.212Z,41.28
2018-07-27T10:43:09.675Z,43.31
2018-07-27T10:46:34.090Z,44.10
2018-07-27T10:49:58.543Z,45.03
2018-07-27T10:53:22.978Z,47.45
2018-07-27T10:56:47.392Z,48.79
2018-07-27T11:00:15.675Z,50.29
2018-07-27T11:03:40.186Z,50.32
2018-07-27T11:07:04.663Z,51.35
2018-07-27T11:10:29.128Z,50.70
2018-07-27T11:13:53.522Z,52.09
2018-07-27T11:17:18.024Z,52.09
2018-07-27T11:20:42.492Z,52.65
2018-07-27T11:24:07.006Z,53.21
2018-07-27T11:27:31.570Z,51.83
2018-07-27T11:30:56.062Z,52.12
2018-07-27T11:34:20.472Z,53.64
2018-07-27T11:37:44.969Z,53.40
2018-07-27T11:41:09.440Z,54.62
2018-07-27T11:44:33.868Z,54.69
2018-07-27T11:47:58.317Z,53.50
2018-07-27T11:51:23.359Z,53.16
2018-07-27T11:54:47.875Z,53.14
2018-07-27T11:58:12.539Z,52.97
2018-07-27T12:01:37.129Z,53.98
2018-07-27T12:05:01.666Z,52.38
2018-07-27T12:08:26.163Z,53.78
2018-07-27T12:11:50.659Z,54.02
2018-07-27T12:15:15.289Z,55.15
2018-07-27T12:18:39.678Z,55.46
2018-07-27T12:22:04.151Z,55.45
2018-07-27T12:25:28.669Z,55.68
2018-07-27T12:28:53.197Z,55.71
2018-07-27T12:32:17.686Z,56.00
2018-07-27T12:35:42.207Z,55.33
2018-07-27T12:39:10.666Z,55.51
2018-07-27T12:42:35.209Z,55.39
2018-07-27T12:45:59.731Z,56.86
2018-07-27T12:49:24.301Z,54.90
2018-07-27T12:52:48.869Z,55.64
2018-07-27T12:56:13.447Z,55.97
2018-07-27T12:59:37.998Z,55.91
2018-07-27T13:03:02.592Z,53.86
2018-07-27T13:06:27.164Z,53.95
2018-07-27T13:09:55.740Z,54.17
2018-07-27T13:13:20.222Z,54.91
2018-07-27T13:16:44.620Z,55.54
2018-07-27T13:20:09.128Z,55.21
2018-07-27T13:23:33.551Z,53.01
2018-07-27T13:26:57.989Z,54.39
2018-07-27T13:30:22.482Z,54.66
2018-07-27T13:34:06.290Z,54.18
2018-07-27T13:37:32.175Z,53.16
2018-07-27T13:40:56.861Z,53.99
2018-07-27T13:44:21.267Z,54.33
2018-07-27T13:47:45.700Z,55.03
2018-07-27T13:51:10.173Z,53.62
2018-07-27T13:54:35.360Z,53.85
2018-07-27T13:57:59.827Z,54.66
2018-07-27T14:01:24.256Z,53.69
2018-07-27T14:04:48.667Z,53.88
2018-07-27T14:08:13.136Z,55.28
2018-07-27T14:11:37.591Z,54.57
2018-07-27T14:15:02.093Z,54.95
2018-07-27T14:18:26.577Z,54.03
2018-07-27T14:21:51.093Z,55.08
2018-07-27T14:25:15.571Z,53.78
2018-07-27T14:28:40.096Z,53.78
2018-07-27T14:32:04.621Z,54.01
2018-07-27T14:35:29.103Z,54.69
2018-07-27T14:38:53.721Z,54.04
2018-07-27T14:42:17.992Z,54.47
2018-07-27T14:45:42.487Z,53.21
2018-07-27T14:49:12.808Z,52.99
2018-07-27T14:52:37.440Z,52.59
2018-07-27T14:56:02.222Z,53.48
2018-07-27T14:59:31.716Z,53.81
2018-07-27T15:02:56.153Z,54.72
2018-07-27T15:06:20.628Z,54.80
2018-07-27T15:09:45.076Z,55.50
2018-07-27T15:13:09.558Z,55.04
2018-07-27T15:16:34.288Z,54.99
2018-07-27T15:19:58.833Z,56.02
2018-07-27T15:23:23.257Z,56.67
2018-07-27T15:26:47.716Z,55.94
2018-07-27T15:30:12.566Z,55.69
2018-07-27T15:33:37.240Z,56.26
2018-07-27T15:37:01.840Z,56.95
2018-07-27T15:40:26.248Z,56.76
2018-07-27T15:43:50.796Z,56.77
2018-07-27T15:47:14.983Z,57.47
2018-07-27T15:50:39.504Z,57.20
2018-07-27T15:54:03.918Z,55.41
2018-07-27T15:57:28.372Z,55.11
2018-07-27T16:00:52.834Z,54.43
2018-07-27T16:04:17.265Z,54.21
2018-07-27T16:07:41.714Z,54.10
2018-07-27T16:11:06.353Z,53.83
2018-07-27T16:14:30.789Z,52.64
2018-07-27T16:17:55.558Z,53.03
2018-07-27T16:21:20.038Z,52.16
2018-07-27T16:24:44.490Z,50.74
2018-07-27T16:28:09.132Z,52.30
2018-07-27T16:31:33.612Z,53.37
2018-07-27T16:34:58.144Z,51.43
2018-07-27T16:38:22.769Z,49.58
2018-07-27T16:41:47.376Z,48.97
2018-07-27T16:45:11.845Z,48.84
2018-07-27T16:48:36.446Z,47.95
2018-07-27T16:52:01.080Z,47.71
2018-07-27T16:55:25.622Z,48.54
2018-07-27T16:58:50.153Z,48.42
2018-07-27T17:02:14.633Z,48.24
2018-07-27T17:05:39.253Z,47.94
2018-07-27T17:09:05.356Z,47.53
2018-07-27T17:12:29.890Z,46.96
2018-07-27T17:15:54.376Z,45.69
2018-07-27T17:19:18.880Z,45.28
2018-07-27T17:22:43.373Z,44.55
2018-07-27T17:26:07.925Z,44.20
2018-07-27T17:29:32.462Z,42.87
2018-07-27T17:32:56.862Z,42.80
2018-07-27T17:36:21.347Z,42.27
2018-07-27T17:39:45.760Z,41.73
2018-07-27T17:43:10.263Z,41.91
2018-07-27T17:46:34.666Z,41.30
2018-07-27T17:49:59.091Z,40.85
2018-07-27T17:53:23.576Z,40.72
2018-07-27T17:56:48.249Z,40.24
2018-07-27T18:00:12.813Z,39.89
2018-07-27T18:03:37.266Z,39.93
2018-07-27T18:07:01.849Z,39.59
2018-07-27T18:10:26.277Z,39.36
2018-07-27T18:13:50.847Z,39.52
2018-07-27T18:17:15.367Z,39.28
2018-07-27T18:20:40.058Z,39.22
2018-07-27T18:24:04.495Z,39.01
2018-07-27T18:27:29.062Z,38.85
2018-07-27T18:30:53.621Z,38.76
2018-07-27T18:34:24.742Z,38.55
2018-07-27T18:37:49.289Z,38.35
2018-07-27T18:41:13.813Z,38.07
2018-07-27T18:44:38.353Z,37.90
2018-07-27T18:48:02.967Z,37.34
2018-07-27T18:51:27.541Z,37.48
2018-07-27T18:54:52.095Z,37.30
2018-07-27T18:58:16.648Z,37.08
2018-07-27T19:01:41.190Z,36.75
2018-07-27T19:05:06.145Z,36.42
2018-07-27T19:08:30.656Z,36.14
2018-07-27T19:11:55.325Z,36.02
2018-07-27T19:15:19.910Z,35.91
2018-07-27T19:18:44.447Z,35.63
2018-07-27T19:22:09.203Z,35.64
2018-07-27T19:25:33.714Z,35.47
2018-07-27T19:28:58.243Z,35.57
2018-07-27T19:32:23.059Z,35.34
2018-07-27T19:35:47.595Z,35.19
2018-07-27T19:39:12.965Z,35.01
2018-07-27T19:42:37.600Z,34.87
2018-07-27T19:46:02.274Z,34.49
2018-07-27T19:49:26.811Z,34.25
2018-07-27T19:52:51.463Z,34.12
2018-07-27T19:56:15.990Z,33.99
2018-07-27T19:59:40.747Z,33.88
2018-07-27T20:03:05.546Z,33.66
2018-07-27T20:06:30.035Z,33.62
2018-07-27T20:09:54.881Z,33.34
2018-07-27T20:13:19.345Z,33.07
2018-07-27T20:16:44.730Z,33.16
2018-07-27T20:20:09.863Z,33.08
2018-07-27T20:23:34.298Z,32.91
2018-07-27T20:26:58.783Z,32.76
2018-07-27T20:30:23.224Z,32.75
2018-07-27T20:33:47.697Z,32.64
2018-07-27T20:37:12.144Z,32.52
2018-07-27T20:40:36.633Z,32.51
2018-07-27T20:44:01.132Z,32.51
2018-07-27T20:47:25.535Z,32.36
2018-07-27T20:50:50.082Z,32.31
2018-07-27T20:54:14.522Z,32.25
2018-07-27T20:57:39.310Z,32.25
2018-07-27T21:01:03.829Z,32.15
2018-07-27T21:04:28.410Z,32.22
2018-07-27T21:07:52.884Z,32.25
2018-07-27T21:11:17.332Z,32.21
2018-07-27T21:14:41.873Z,32.20
2018-07-27T21:18:06.381Z,31.96
2018-07-27T21:21:31.191Z,31.95
2018-07-27T21:24:55.701Z,31.98
2018-07-27T21:28:19.907Z,31.79
2018-07-27T21:31:44.507Z,31.72
2018-07-27T21:35:09.083Z,31.73
2018-07-27T21:38:33.601Z,31.65
2018-07-27T21:41:58.084Z,31.61
2018-07-27T21:45:22.632Z,31.73
2018-07-27T21:48:47.150Z,31.78
2018-07-27T21:52:11.778Z,31.78
2018-07-27T21:55:36.319Z,31.67
2018-07-27T21:59:00.813Z,31.61
2018-07-27T22:02:25.572Z,31.31
2018-07-27T22:05:50.062Z,31.20
2018-07-27T22:09:14.606Z,31.03
2018-07-27T22:12:39.194Z,31.13
2018-07-27T22:16:04.068Z,31.25
2018-07-27T22:19:28.550Z,31.38
2018-07-27T22:22:54.128Z,31.27
2018-07-27T22:26:20.156Z,31.23
2018-07-27T22:29:45.430Z,31.22
2018-07-27T22:33:10.667Z,31.39
2018-07-27T22:36:35.726Z,31.23
2018-07-27T22:40:01.298Z,31.21
2018-07-27T22:43:25.863Z,31.47
2018-07-27T22:46:50.546Z,31.60
2018-07-27T22:50:15.221Z,31.49
2018-07-27T22:53:40.020Z,31.56
2018-07-27T22:57:04.687Z,31.37
2018-07-27T23:00:29.346Z,31.40
2018-07-27T23:03:53.956Z,31.23
2018-07-27T23:07:18.515Z,31.36
2018-07-27T23:10:43.028Z,31.45
2018-07-27T23:14:07.726Z,31.43
2018-07-27T23:17:32.294Z,31.39
2018-07-27T23:20:56.991Z,31.50
2018-07-27T23:24:21.596Z,31.38
2018-07-27T23:27:46.176Z,31.18
2018-07-27T23:31:10.857Z,31.35
2018-07-27T23:34:35.370Z,31.20
2018-07-27T23:37:59.986Z,31.23
2018-07-27T23:41:24.523Z,31.22
2018-07-27T23:44:49.128Z,31.10
2018-07-27T23:48:13.621Z,31.02
2018-07-27T23:51:38.207Z,31.07
2018-07-27T23:55:02.795Z,31.11
2018-07-27T23:58:27.947Z,31.11
